Terminal Aerodrome Forecast
Issued by NWS

Home | Current Version | Previous Version | Text Only | Print | Product List | Glossary On
Versions: 1 2 3 4 5 6 7 8 9 10 11 12
731
FTUS45 KVEF 131737
TAFDAG
TAF
KDAG 131737Z 1318/1418 27008KT P6SM SCT250
     FM132000 VRB06KT P6SM FEW250
     FM140500 27011KT P6SM FEW250=

USA.gov is the U.S. government's official web portal to all federal, state and local government web resources and services.